Terminal Aerodrome Forecast
Issued by NWS

Home | Current Version | Previous Version | Text Only | Print | Product List | Glossary On
Versions: 1 2 3 4 5 6 7 8 9 10 11 12 13 14 15 16 17 18 19 20 21 22 23 24 25 26 27 28 29
000
FTUS44 KMAF 211700
TAFCNM
TAF
KCNM 211733Z 2118/2218 08011KT P6SM SCT025 OVC040
      TEMPO 2118/2122 2SM TSRA BR BKN005 OVC025CB
     FM212200 07010KT P6SM SCT025 BKN040
      TEMPO 2122/2202 4SM TSRA BR OVC025CB=

USA.gov is the U.S. government's official web portal to all federal, state and local government web resources and services.